West Milwaukee, Wisconsin
Current Conditions -  °F | °C
As of 11:52 PM on Friday 19 Dec 2014 (Local Time) from KMKE Reporting Station
Overcast Overcast  
Wind Chill: 28°   Ceiling: 2300
Heat Index: 28°   Visibility: 10mi
Dew Point: 19°   Wind: 3mph
Humidity: 69%   Direction: 240°WSW
Pressure: 30.26"   Gusts: NA
Location:  42.9995°N, 87.9467°W
Report Text: KMKE 200552Z 24003KT 10SM OVC023 M02/M07 A3026 RMK AO2 SLP259 T10221072 11017 21028 410061039 55000
Loading
Personal Weather Stations






























Interactive Weather Map New forecast layout! Learn more

10-Day Weather Forecast

Advertisements
Track Severe Weather on mobile